sensor_id;sensor_type;location;lat;lon;timestamp;pressure;altitude;pressure_sealevel;temperature;humidity
6464;BME280;3265;42.694;23.282;2024-03-17T00:00:22;73087.63;;;-143.21;71.37
6464;BME280;3265;42.694;23.282;2024-03-17T00:02:48;73087.63;;;-143.21;71.13
6464;BME280;3265;42.694;23.282;2024-03-17T00:05:15;73089.63;;;-143.21;71.29
6464;BME280;3265;42.694;23.282;2024-03-17T00:07:41;73087.63;;;-143.21;71.68
6464;BME280;3265;42.694;23.282;2024-03-17T00:10:08;73087.63;;;-143.21;71.96
6464;BME280;3265;42.694;23.282;2024-03-17T00:15:01;73095.56;;;-143.21;71.81
6464;BME280;3265;42.694;23.282;2024-03-17T00:17:41;73091.59;;;-143.21;71.88
6464;BME280;3265;42.694;23.282;2024-03-17T00:27:04;73109.44;;;-143.21;71.76
6464;BME280;3265;42.694;23.282;2024-03-17T00:29:45;73101.53;;;-143.21;71.81
6464;BME280;3265;42.694;23.282;2024-03-17T00:32:12;73101.53;;;-143.21;71.73
6464;BME280;3265;42.694;23.282;2024-03-17T00:34:39;73107.47;;;-143.21;71.57
6464;BME280;3265;42.694;23.282;2024-03-17T00:37:09;73113.41;;;-143.21;71.95
6464;BME280;3265;42.694;23.282;2024-03-17T00:39:36;73109.44;;;-143.21;72.10
6464;BME280;3265;42.694;23.282;2024-03-17T00:42:12;73117.38;;;-143.21;72.21
6464;BME280;3265;42.694;23.282;2024-03-17T00:45:07;73119.38;;;-143.21;72.22
6464;BME280;3265;42.694;23.282;2024-03-17T00:50:50;73125.31;;;-143.21;72.33
6464;BME280;3265;42.694;23.282;2024-03-17T00:56:14;73131.28;;;-143.21;72.52
6464;BME280;3265;42.694;23.282;2024-03-17T00:58:48;73137.22;;;-143.21;72.44
6464;BME280;3265;42.694;23.282;2024-03-17T01:04:06;73151.09;;;-143.21;73.07
6464;BME280;3265;42.694;23.282;2024-03-17T01:09:47;73172.94;;;-143.21;73.38
6464;BME280;3265;42.694;23.282;2024-03-17T01:12:14;73204.66;;;-143.21;74.37
6464;BME280;3265;42.694;23.282;2024-03-17T01:14:44;73226.50;;;-143.21;75.64
6464;BME280;3265;42.694;23.282;2024-03-17T01:17:10;73264.19;;;-143.21;76.47
6464;BME280;3265;42.694;23.282;2024-03-17T01:19:37;73274.09;;;-143.21;76.98
6464;BME280;3265;42.694;23.282;2024-03-17T01:49:43;73278.06;;;-143.21;79.16
6464;BME280;3265;42.694;23.282;2024-03-17T01:54:46;73260.22;;;-143.21;78.30
6464;BME280;3265;42.694;23.282;2024-03-17T01:57:14;73244.34;;;-143.21;77.90
6464;BME280;3265;42.694;23.282;2024-03-17T01:59:39;73232.44;;;-143.21;77.49
6464;BME280;3265;42.694;23.282;2024-03-17T02:02:07;73224.50;;;-143.21;76.88
6464;BME280;3265;42.694;23.282;2024-03-17T02:04:33;73220.53;;;-143.21;76.80
6464;BME280;3265;42.694;23.282;2024-03-17T02:07:04;73208.63;;;-143.21;76.28
6464;BME280;3265;42.694;23.282;2024-03-17T02:09:30;73218.56;;;-143.21;76.28
6464;BME280;3265;42.694;23.282;2024-03-17T02:11:57;73218.56;;;-143.21;76.10
6464;BME280;3265;42.694;23.282;2024-03-17T02:17:32;73228.47;;;-143.21;75.93
6464;BME280;3265;42.694;23.282;2024-03-17T02:20:23;73220.53;;;-143.21;75.96
6464;BME280;3265;42.694;23.282;2024-03-17T02:23:33;73216.56;;;-143.21;75.62
6464;BME280;3265;42.694;23.282;2024-03-17T02:26:26;73216.56;;;-143.21;75.48
6464;BME280;3265;42.694;23.282;2024-03-17T02:28:53;73208.63;;;-143.21;75.42
6464;BME280;3265;42.694;23.282;2024-03-17T02:31:19;73216.56;;;-143.21;75.44
6464;BME280;3265;42.694;23.282;2024-03-17T02:33:47;73216.56;;;-143.21;75.69
6464;BME280;3265;42.694;23.282;2024-03-17T02:36:13;73224.50;;;-143.21;75.98
6464;BME280;3265;42.694;23.282;2024-03-17T02:38:45;73234.41;;;-143.21;75.80
6464;BME280;3265;42.694;23.282;2024-03-17T02:41:29;73242.34;;;-143.21;75.72
6464;BME280;3265;42.694;23.282;2024-03-17T02:43:56;73240.38;;;-143.21;75.61
6464;BME280;3265;42.694;23.282;2024-03-17T02:46:22;73248.31;;;-143.21;75.45
6464;BME280;3265;42.694;23.282;2024-03-17T02:48:51;73248.31;;;-143.21;75.80
6464;BME280;3265;42.694;23.282;2024-03-17T02:51:30;73240.38;;;-143.21;75.55
6464;BME280;3265;42.694;23.282;2024-03-17T02:57:10;73272.13;;;-143.21;76.46
6464;BME280;3265;42.694;23.282;2024-03-17T02:59:38;73278.06;;;-143.21;76.97
6464;BME280;3265;42.694;23.282;2024-03-17T03:02:05;73280.03;;;-143.21;77.24
6464;BME280;3265;42.694;23.282;2024-03-17T03:04:41;73287.97;;;-143.21;77.45
6464;BME280;3265;42.694;23.282;2024-03-17T03:07:21;73284.00;;;-143.21;77.79
6464;BME280;3265;42.694;23.282;2024-03-17T03:09:49;73287.97;;;-143.21;77.61
6464;BME280;3265;42.694;23.282;2024-03-17T03:12:57;73280.03;;;-143.21;77.50
6464;BME280;3265;42.694;23.282;2024-03-17T03:15:14;73291.94;;;-143.21;77.28
6464;BME280;3265;42.694;23.282;2024-03-17T03:17:42;73286.00;;;-143.21;77.58
6464;BME280;3265;42.694;23.282;2024-03-17T03:20:10;73284.00;;;-143.21;77.11
6464;BME280;3265;42.694;23.282;2024-03-17T03:22:37;73270.13;;;-143.21;77.10
6464;BME280;3265;42.694;23.282;2024-03-17T03:25:04;73266.16;;;-143.21;76.58
6464;BME280;3265;42.694;23.282;2024-03-17T03:27:33;73264.19;;;-143.21;76.52
6464;BME280;3265;42.694;23.282;2024-03-17T03:30:14;73270.13;;;-143.21;76.35
6464;BME280;3265;42.694;23.282;2024-03-17T03:32:46;73268.16;;;-143.21;76.12
6464;BME280;3265;42.694;23.282;2024-03-17T03:35:28;73264.19;;;-143.21;75.94
6464;BME280;3265;42.694;23.282;2024-03-17T03:37:55;73274.09;;;-143.21;75.97
6464;BME280;3265;42.694;23.282;2024-03-17T03:40:23;73264.19;;;-143.21;76.26
6464;BME280;3265;42.694;23.282;2024-03-17T03:43:08;73270.13;;;-143.21;76.42
6464;BME280;3265;42.694;23.282;2024-03-17T03:48:12;73272.13;;;-143.21;76.11
6464;BME280;3265;42.694;23.282;2024-03-17T03:54:01;73286.00;;;-143.21;75.75
6464;BME280;3265;42.694;23.282;2024-03-17T03:56:44;73287.97;;;-143.21;75.96
6464;BME280;3265;42.694;23.282;2024-03-17T03:59:13;73293.94;;;-143.21;75.93
6464;BME280;3265;42.694;23.282;2024-03-17T04:01:40;73295.91;;;-143.21;76.08
6464;BME280;3265;42.694;23.282;2024-03-17T04:04:24;73303.84;;;-143.21;76.01
6464;BME280;3265;42.694;23.282;2024-03-17T04:07:10;73305.84;;;-143.21;76.07
6464;BME280;3265;42.694;23.282;2024-03-17T04:10:01;73309.81;;;-143.21;76.04
6464;BME280;3265;42.694;23.282;2024-03-17T04:12:42;73303.84;;;-143.21;75.76
6464;BME280;3265;42.694;23.282;2024-03-17T04:15:22;73317.75;;;-143.21;75.99
6464;BME280;3265;42.694;23.282;2024-03-17T04:17:50;73321.72;;;-143.21;76.15
6464;BME280;3265;42.694;23.282;2024-03-17T04:20:30;73325.69;;;-143.21;76.38
6464;BME280;3265;42.694;23.282;2024-03-17T04:22:57;73339.56;;;-143.21;76.40
6464;BME280;3265;42.694;23.282;2024-03-17T04:25:25;73341.53;;;-143.21;76.51
6464;BME280;3265;42.694;23.282;2024-03-17T04:28:16;73339.56;;;-143.21;76.71
6464;BME280;3265;42.694;23.282;2024-03-17T04:30:44;73341.53;;;-143.21;76.51
6464;BME280;3265;42.694;23.282;2024-03-17T04:33:23;73351.47;;;-143.21;76.77
6464;BME280;3265;42.694;23.282;2024-03-17T04:35:59;73357.41;;;-143.21;76.98
6464;BME280;3265;42.694;23.282;2024-03-17T04:38:27;73361.38;;;-143.21;76.92
6464;BME280;3265;42.694;23.282;2024-03-17T04:40:55;73365.34;;;-143.21;77.35
6464;BME280;3265;42.694;23.282;2024-03-17T04:46:21;73361.38;;;-143.21;77.22
6464;BME280;3265;42.694;23.282;2024-03-17T04:48:48;73373.28;;;-143.21;77.32
6464;BME280;3265;42.694;23.282;2024-03-17T04:51:16;73363.38;;;-143.21;77.19
6464;BME280;3265;42.694;23.282;2024-03-17T04:57:30;73383.19;;;-143.21;77.56
6464;BME280;3265;42.694;23.282;2024-03-17T04:59:57;73373.28;;;-143.21;77.66
6464;BME280;3265;42.694;23.282;2024-03-17T05:02:26;73373.28;;;-143.21;77.54
6464;BME280;3265;42.694;23.282;2024-03-17T05:05:07;73359.41;;;-143.21;76.74
6464;BME280;3265;42.694;23.282;2024-03-17T05:07:48;73365.34;;;-143.21;76.94
6464;BME280;3265;42.694;23.282;2024-03-17T05:10:29;73357.41;;;-143.21;76.94
6464;BME280;3265;42.694;23.282;2024-03-17T05:13:05;73351.47;;;-143.21;77.06
6464;BME280;3265;42.694;23.282;2024-03-17T05:15:50;73349.47;;;-143.21;76.77
6464;BME280;3265;42.694;23.282;2024-03-17T05:18:19;73365.34;;;-143.21;76.18
6464;BME280;3265;42.694;23.282;2024-03-17T05:21:02;73369.31;;;-143.21;76.33
6464;BME280;3265;42.694;23.282;2024-03-17T05:23:38;73379.22;;;-143.21;76.56
6464;BME280;3265;42.694;23.282;2024-03-17T05:26:28;73381.22;;;-143.21;77.21
6464;BME280;3265;42.694;23.282;2024-03-17T05:29:10;73381.22;;;-143.21;76.65
6464;BME280;3265;42.694;23.282;2024-03-17T05:31:37;73391.13;;;-143.21;76.92
6464;BME280;3265;42.694;23.282;2024-03-17T05:34:19;73397.09;;;-143.21;77.22
6464;BME280;3265;42.694;23.282;2024-03-17T05:36:47;73395.09;;;-143.21;77.56
6464;BME280;3265;42.694;23.282;2024-03-17T05:39:23;73393.13;;;-143.21;77.53
6464;BME280;3265;42.694;23.282;2024-03-17T05:42:04;73385.19;;;-143.21;77.66
6464;BME280;3265;42.694;23.282;2024-03-17T05:44:48;73381.22;;;-143.21;77.69
6464;BME280;3265;42.694;23.282;2024-03-17T05:50:25;73355.44;;;-143.21;77.69
6464;BME280;3265;42.694;23.282;2024-03-17T05:53:06;73347.50;;;-143.21;78.45
6464;BME280;3265;42.694;23.282;2024-03-17T05:55:46;73335.59;;;-143.21;78.53
6464;BME280;3265;42.694;23.282;2024-03-17T05:58:16;73317.75;;;-143.21;77.76
6464;BME280;3265;42.694;23.282;2024-03-17T06:17:29;73228.47;;;-143.21;76.19
6464;BME280;3265;42.694;23.282;2024-03-17T06:23:42;73212.59;;;-143.21;75.06
6464;BME280;3265;42.694;23.282;2024-03-17T06:43:12;73184.84;;;-143.21;74.57
6464;BME280;3265;42.694;23.282;2024-03-17T06:46:11;73168.97;;;-143.21;73.79
6464;BME280;3265;42.694;23.282;2024-03-17T06:52:29;73157.06;;;-143.21;72.74
6464;BME280;3265;42.694;23.282;2024-03-17T07:04:38;73113.41;;;-143.21;70.41
6464;BME280;3265;42.694;23.282;2024-03-17T07:10:38;73103.50;;;-143.21;71.21
6464;BME280;3265;42.694;23.282;2024-03-17T07:13:06;73091.59;;;-143.21;70.95
6464;BME280;3265;42.694;23.282;2024-03-17T07:15:34;73089.63;;;-143.21;70.30
6464;BME280;3265;42.694;23.282;2024-03-17T07:20:40;73071.75;;;-143.21;69.69
6464;BME280;3265;42.694;23.282;2024-03-17T07:29:41;73059.88;;;-143.21;69.98
6464;BME280;3265;42.694;23.282;2024-03-17T07:32:28;73044.00;;;-143.21;68.87
6464;BME280;3265;42.694;23.282;2024-03-17T07:35:16;73038.03;;;-143.21;68.55
6464;BME280;3265;42.694;23.282;2024-03-17T07:37:46;73030.09;;;-143.21;68.82
6464;BME280;3265;42.694;23.282;2024-03-17T07:40:16;73012.25;;;-143.21;67.98
6464;BME280;3265;42.694;23.282;2024-03-17T07:42:47;73012.25;;;-143.21;67.47
6464;BME280;3265;42.694;23.282;2024-03-17T07:45:28;73010.28;;;-143.21;67.45
6464;BME280;3265;42.694;23.282;2024-03-17T07:48:28;73004.31;;;-143.21;67.85
6464;BME280;3265;42.694;23.282;2024-03-17T07:51:10;72984.50;;;-143.21;67.52
6464;BME280;3265;42.694;23.282;2024-03-17T07:53:39;72984.50;;;-143.21;66.59
6464;BME280;3265;42.694;23.282;2024-03-17T07:56:25;72962.66;;;-143.21;66.32
6464;BME280;3265;42.694;23.282;2024-03-17T07:59:21;72968.63;;;-143.21;66.08
6464;BME280;3265;42.694;23.282;2024-03-17T08:02:02;72990.44;;;-143.21;66.40
6464;BME280;3265;42.694;23.282;2024-03-17T08:14:42;72964.66;;;-143.21;65.92
6464;BME280;3265;42.694;23.282;2024-03-17T08:20:14;72940.84;;;-143.21;64.17
6464;BME280;3265;42.694;23.282;2024-03-17T08:22:42;72932.91;;;-143.21;64.51
6464;BME280;3265;42.694;23.282;2024-03-17T08:25:09;72930.94;;;-143.21;64.54
6464;BME280;3265;42.694;23.282;2024-03-17T08:27:54;72930.94;;;-143.21;64.42
6464;BME280;3265;42.694;23.282;2024-03-17T08:30:32;72928.94;;;-143.21;64.02
6464;BME280;3265;42.694;23.282;2024-03-17T08:32:59;72924.97;;;-143.21;63.98
6464;BME280;3265;42.694;23.282;2024-03-17T08:35:25;72917.06;;;-143.21;64.09
6464;BME280;3265;42.694;23.282;2024-03-17T08:37:52;72911.09;;;-143.21;63.85
6464;BME280;3265;42.694;23.282;2024-03-17T08:40:20;72909.13;;;-143.21;63.22
6464;BME280;3265;42.694;23.282;2024-03-17T08:42:48;72899.19;;;-143.21;63.45
6464;BME280;3265;42.694;23.282;2024-03-17T08:45:14;72885.31;;;-143.21;63.36
6464;BME280;3265;42.694;23.282;2024-03-17T08:47:43;72869.44;;;-143.21;62.91
6464;BME280;3265;42.694;23.282;2024-03-17T08:50:10;72853.56;;;-143.21;62.48
6464;BME280;3265;42.694;23.282;2024-03-17T08:55:06;72835.72;;;-143.21;61.65
6464;BME280;3265;42.694;23.282;2024-03-17T08:57:39;72815.88;;;-143.21;60.91
6464;BME280;3265;42.694;23.282;2024-03-17T09:00:25;72802.00;;;-143.21;60.55
6464;BME280;3265;42.694;23.282;2024-03-17T09:02:54;72804.00;;;-143.21;60.52
6464;BME280;3265;42.694;23.282;2024-03-17T09:05:20;72800.03;;;-143.21;60.73
6464;BME280;3265;42.694;23.282;2024-03-17T09:07:47;72798.03;;;-143.21;61.04
6464;BME280;3265;42.694;23.282;2024-03-17T09:10:14;72778.22;;;-143.21;61.43
6464;BME280;3265;42.694;23.282;2024-03-17T09:12:41;72740.53;;;-143.21;60.71
6464;BME280;3265;42.694;23.282;2024-03-17T09:15:08;72704.81;;;-143.21;58.72
6464;BME280;3265;42.694;23.282;2024-03-17T09:17:37;72679.03;;;-143.21;58.13
6464;BME280;3265;42.694;23.282;2024-03-17T09:20:10;72641.34;;;-143.21;57.35
6464;BME280;3265;42.694;23.282;2024-03-17T09:22:37;72613.59;;;-143.21;55.33
6464;BME280;3265;42.694;23.282;2024-03-17T09:25:05;72577.88;;;-143.21;54.65
6464;BME280;3265;42.694;23.282;2024-03-17T09:27:33;72562.03;;;-143.21;53.60
6464;BME280;3265;42.694;23.282;2024-03-17T09:30:03;72554.09;;;-143.21;53.70
6464;BME280;3265;42.694;23.282;2024-03-17T09:32:32;72536.25;;;-143.21;52.91
6464;BME280;3265;42.694;23.282;2024-03-17T09:34:59;72524.34;;;-143.21;53.02
6464;BME280;3265;42.694;23.282;2024-03-17T09:37:28;72498.56;;;-143.21;52.33
6464;BME280;3265;42.694;23.282;2024-03-17T09:39:56;72468.81;;;-143.21;52.40
6464;BME280;3265;42.694;23.282;2024-03-17T09:42:34;72429.16;;;-143.21;51.68
6464;BME280;3265;42.694;23.282;2024-03-17T09:45:06;72397.41;;;-143.21;49.97
6464;BME280;3265;42.694;23.282;2024-03-17T09:50:05;72383.53;;;-143.21;46.21
6464;BME280;3265;42.694;23.282;2024-03-17T09:52:42;72369.66;;;-143.21;45.10
6464;BME280;3265;42.694;23.282;2024-03-17T09:55:19;72373.63;;;-143.21;45.24
6464;BME280;3265;42.694;23.282;2024-03-17T09:57:55;72401.38;;;-143.21;45.52
6464;BME280;3265;42.694;23.282;2024-03-17T10:00:22;72411.28;;;-143.21;43.43
6464;BME280;3265;42.694;23.282;2024-03-17T10:02:49;72407.31;;;-143.21;44.85
6464;BME280;3265;42.694;23.282;2024-03-17T10:05:21;72415.25;;;-143.21;45.12
6464;BME280;3265;42.694;23.282;2024-03-17T10:07:50;72435.09;;;-143.21;46.14
6464;BME280;3265;42.694;23.282;2024-03-17T10:10:20;72439.06;;;-143.21;46.42
6464;BME280;3265;42.694;23.282;2024-03-17T10:12:49;72423.19;;;-143.21;46.16
6464;BME280;3265;42.694;23.282;2024-03-17T10:15:23;72415.25;;;-143.21;46.21
6464;BME280;3265;42.694;23.282;2024-03-17T10:18:01;72399.41;;;-143.21;45.43
6464;BME280;3265;42.694;23.282;2024-03-17T10:20:28;72405.34;;;-143.21;44.54
6464;BME280;3265;42.694;23.282;2024-03-17T10:23:02;72387.50;;;-143.21;44.86
6464;BME280;3265;42.694;23.282;2024-03-17T10:28:36;72371.63;;;-143.21;41.41
6464;BME280;3265;42.694;23.282;2024-03-17T10:31:47;72379.56;;;-143.21;41.93
6464;BME280;3265;42.694;23.282;2024-03-17T10:43:56;72328.00;;;-143.21;43.72
6464;BME280;3265;42.694;23.282;2024-03-17T11:01:05;72308.16;;;-143.21;42.72
6464;BME280;3265;42.694;23.282;2024-03-17T11:06:30;72276.44;;;-143.21;43.14
6464;BME280;3265;42.694;23.282;2024-03-17T11:09:04;72278.41;;;-143.21;42.89
6464;BME280;3265;42.694;23.282;2024-03-17T11:11:35;72296.28;;;-143.21;42.60
6464;BME280;3265;42.694;23.282;2024-03-17T11:14:18;72296.28;;;-143.21;42.81
6464;BME280;3265;42.694;23.282;2024-03-17T11:16:50;72296.28;;;-143.21;42.57
6464;BME280;3265;42.694;23.282;2024-03-17T11:19:20;72292.31;;;-143.21;42.91
6464;BME280;3265;42.694;23.282;2024-03-17T11:24:53;72274.47;;;-143.21;41.69
6464;BME280;3265;42.694;23.282;2024-03-17T12:04:31;71923.47;;;-143.21;33.84
6464;BME280;3265;42.694;23.282;2024-03-17T12:07:24;71865.97;;;-143.21;33.82
6464;BME280;3265;42.694;23.282;2024-03-17T15:16:25;72308.16;;;-143.21;51.70
6464;BME280;3265;42.694;23.282;2024-03-17T15:18:55;72318.09;;;-143.21;51.75
6464;BME280;3265;42.694;23.282;2024-03-17T15:21:23;72312.13;;;-143.21;52.15
6464;BME280;3265;42.694;23.282;2024-03-17T15:23:54;72306.19;;;-143.21;51.61
6464;BME280;3265;42.694;23.282;2024-03-17T15:26:35;72310.16;;;-143.21;50.86
6464;BME280;3265;42.694;23.282;2024-03-17T15:29:29;72316.09;;;-143.21;51.41
6464;BME280;3265;42.694;23.282;2024-03-17T15:32:30;72324.03;;;-143.21;51.66
6464;BME280;3265;42.694;23.282;2024-03-17T15:34:58;72324.03;;;-143.21;52.05
6464;BME280;3265;42.694;23.282;2024-03-17T15:37:35;72328.00;;;-143.21;52.49
6464;BME280;3265;42.694;23.282;2024-03-17T15:40:36;72351.78;;;-143.21;52.72
6464;BME280;3265;42.694;23.282;2024-03-17T15:46:06;72357.75;;;-143.21;53.25
6464;BME280;3265;42.694;23.282;2024-03-17T15:59:07;72403.34;;;-143.21;53.52
6464;BME280;3265;42.694;23.282;2024-03-17T16:12:57;72462.84;;;-143.21;56.29
6464;BME280;3265;42.694;23.282;2024-03-17T16:34:15;72552.09;;;-143.21;59.98
6464;BME280;3265;42.694;23.282;2024-03-17T16:36:50;72558.06;;;-143.21;60.36
6464;BME280;3265;42.694;23.282;2024-03-17T16:39:43;72565.97;;;-143.21;60.48
6464;BME280;3265;42.694;23.282;2024-03-17T16:52:33;72589.78;;;-143.21;61.13
6464;BME280;3265;42.694;23.282;2024-03-17T16:55:10;72605.66;;;-143.21;61.78
6464;BME280;3265;42.694;23.282;2024-03-17T16:57:50;72607.63;;;-143.21;61.94
6464;BME280;3265;42.694;23.282;2024-03-17T17:36:30;72708.78;;;-143.21;67.14
6464;BME280;3265;42.694;23.282;2024-03-17T17:39:00;72730.59;;;-143.21;67.80
6464;BME280;3265;42.694;23.282;2024-03-17T17:42:02;72732.59;;;-143.21;68.07
6464;BME280;3265;42.694;23.282;2024-03-17T17:44:35;72754.41;;;-143.21;68.93
6464;BME280;3265;42.694;23.282;2024-03-17T17:47:16;72762.34;;;-143.21;69.36
6464;BME280;3265;42.694;23.282;2024-03-17T17:50:24;72770.28;;;-143.21;69.74
6464;BME280;3265;42.694;23.282;2024-03-17T17:53:34;72788.13;;;-143.21;70.55
6464;BME280;3265;42.694;23.282;2024-03-17T23:44:53;72976.56;;;-143.21;68.03
6464;BME280;3265;42.694;23.282;2024-03-17T23:54:19;72978.53;;;-143.21;68.57
